This is the latest recevied weather packets stored in our database for station/object PE1RXF-13. If no packets are shown the sender has not sent any weather packets the latest 10 day(s).
| Time | Temp. | Humidity | Pressure | Rain* | Wind** | Luminosity | Snow |
|---|---|---|---|---|---|---|---|
| 1777506257 | 5.56° C | 91% | 1030.2 hPa | 0 mm | - | 0 W/m² | - |
| 1777506256 | 5.56° C | 91% | 1030.2 hPa | 0 mm | - | 0 W/m² | - |
| 1777502655 | 5.56° C | 96% | 1029.8 hPa | 0 mm | - | 0 W/m² | - |
| 1777499055 | 6.67° C | 90% | 1029.4 hPa | 0 mm | - | 0 W/m² | - |
| 1777493656 | 8.33° C | 73% | 1029.1 hPa | 0 mm | - | 0 W/m² | - |
| 1777490056 | 11.11° C | 54% | 1028.6 hPa | 0 mm | - | 0 W/m² | - |
| 1777488255 | 12.78° C | 47% | 1028.2 hPa | 0 mm | - | 4 W/m² | - |
| 1777486456 | 14.44° C | 40% | 1027.8 hPa | 0 mm | - | 11 W/m² | - |
| 1777484655 | 15.56° C | 36% | 1027.7 hPa | 0 mm | - | 15 W/m² | - |
| 1777479255 | 18.89° C | 24% | 1027.7 hPa | 0 mm | - | 116 W/m² | - |
| 1777475655 | 18.33° C | 26% | 1027.8 hPa | 0 mm | - | 175 W/m² | - |
| 1777473855 | 18.89° C | 24% | 1028 hPa | 0 mm | - | 197 W/m² | - |
| 1777472055 | 20° C | 23% | 1028.2 hPa | 0 mm | - | 231 W/m² | - |
| 1777470255 | 20° C | 21% | 1028.3 hPa | 0 mm | - | 266 W/m² | - |
| 1777466655 | 18.89° C | 24% | 1028.4 hPa | 0 mm | - | 323 W/m² | - |
| 1777464855 | 19.44° C | 22% | 1028.7 hPa | 0 mm | - | 333 W/m² | - |
| 1777463055 | 18.89° C | 23% | 1028.8 hPa | 0 mm | - | 332 W/m² | - |
| 1777461255 | 17.78° C | 21% | 1029 hPa | 0 mm | - | 338 W/m² | - |
| 1777459456 | 17.22° C | 24% | 1029 hPa | 0 mm | - | 328 W/m² | - |
| 1777457655 | 17.22° C | 23% | 1029.3 hPa | 0 mm | - | 296 W/m² | - |
| 1777455856 | 16.11° C | 27% | 1029.5 hPa | 0 mm | - | 242 W/m² | - |
| 1777454055 | 15.56° C | 30% | 1029.5 hPa | 0 mm | - | 210 W/m² | - |
| 1777452257 | 15.56° C | 31% | 1029.5 hPa | 0 mm | - | 186 W/m² | - |
| 1777448655 | 13.33° C | 34% | 1029.4 hPa | 0 mm | - | 146 W/m² | - |
| 1777446855 | 13.33° C | 38% | 1029.3 hPa | 0 mm | - | 130 W/m² | - |
* Rain latest hour (hover to see other rain measurements)
** Current wind speed in m/s (hover to see current wind gust speed)